sensor_id;sensor_type;location;lat;lon;timestamp;temperature;humidity
9598;DHT22;4837;50.890;4.724;2023-08-20T00:01:34;20.70;99.90
9598;DHT22;4837;50.890;4.724;2023-08-20T00:04:00;20.80;99.90
9598;DHT22;4837;50.890;4.724;2023-08-20T00:06:26;20.80;99.90
9598;DHT22;4837;50.890;4.724;2023-08-20T00:08:52;20.80;99.90
9598;DHT22;4837;50.890;4.724;2023-08-20T00:11:17;20.70;99.90
9598;DHT22;4837;50.890;4.724;2023-08-20T00:13:44;20.60;99.90
9598;DHT22;4837;50.890;4.724;2023-08-20T00:16:10;20.50;99.90
9598;DHT22;4837;50.890;4.724;2023-08-20T00:18:38;20.50;99.90
9598;DHT22;4837;50.890;4.724;2023-08-20T00:21:04;20.60;99.90
9598;DHT22;4837;50.890;4.724;2023-08-20T00:23:30;20.50;99.90
9598;DHT22;4837;50.890;4.724;2023-08-20T00:25:56;20.50;99.90
9598;DHT22;4837;50.890;4.724;2023-08-20T00:28:22;20.50;99.90
9598;DHT22;4837;50.890;4.724;2023-08-20T00:30:48;20.60;99.90
9598;DHT22;4837;50.890;4.724;2023-08-20T00:33:14;20.50;99.90
9598;DHT22;4837;50.890;4.724;2023-08-20T00:35:40;20.50;99.90
9598;DHT22;4837;50.890;4.724;2023-08-20T00:38:06;20.50;99.90
9598;DHT22;4837;50.890;4.724;2023-08-20T00:40:32;20.60;99.90
9598;DHT22;4837;50.890;4.724;2023-08-20T00:42:58;20.50;99.90
9598;DHT22;4837;50.890;4.724;2023-08-20T00:45:24;20.40;99.90
9598;DHT22;4837;50.890;4.724;2023-08-20T00:47:50;20.40;99.90
9598;DHT22;4837;50.890;4.724;2023-08-20T00:50:17;20.30;99.90
9598;DHT22;4837;50.890;4.724;2023-08-20T00:52:43;20.30;99.90
9598;DHT22;4837;50.890;4.724;2023-08-20T00:55:11;20.30;99.90
9598;DHT22;4837;50.890;4.724;2023-08-20T00:57:39;20.30;99.90
9598;DHT22;4837;50.890;4.724;2023-08-20T01:00:06;20.20;99.90
9598;DHT22;4837;50.890;4.724;2023-08-20T01:02:37;20.30;99.90
9598;DHT22;4837;50.890;4.724;2023-08-20T01:05:04;20.30;99.90
9598;DHT22;4837;50.890;4.724;2023-08-20T01:12:34;20.20;99.90
9598;DHT22;4837;50.890;4.724;2023-08-20T01:15:00;20.10;99.90
9598;DHT22;4837;50.890;4.724;2023-08-20T01:17:25;20.00;99.90
9598;DHT22;4837;50.890;4.724;2023-08-20T01:19:52;20.00;99.90
9598;DHT22;4837;50.890;4.724;2023-08-20T01:30:44;20.00;99.90
9598;DHT22;4837;50.890;4.724;2023-08-20T01:33:11;20.20;99.90
9598;DHT22;4837;50.890;4.724;2023-08-20T01:35:38;20.20;99.90
9598;DHT22;4837;50.890;4.724;2023-08-20T01:38:04;20.20;99.90
9598;DHT22;4837;50.890;4.724;2023-08-20T01:40:30;20.20;99.90
9598;DHT22;4837;50.890;4.724;2023-08-20T01:42:57;20.30;99.90
9598;DHT22;4837;50.890;4.724;2023-08-20T01:45:23;20.20;99.90
9598;DHT22;4837;50.890;4.724;2023-08-20T01:47:49;20.20;99.90
9598;DHT22;4837;50.890;4.724;2023-08-20T01:50:14;20.20;99.90
9598;DHT22;4837;50.890;4.724;2023-08-20T01:52:40;20.30;99.90
9598;DHT22;4837;50.890;4.724;2023-08-20T01:55:06;20.30;99.90
9598;DHT22;4837;50.890;4.724;2023-08-20T01:57:32;20.40;99.90
9598;DHT22;4837;50.890;4.724;2023-08-20T01:59:58;20.40;99.90
9598;DHT22;4837;50.890;4.724;2023-08-20T02:02:24;20.30;99.90
9598;DHT22;4837;50.890;4.724;2023-08-20T02:04:50;20.30;99.90
9598;DHT22;4837;50.890;4.724;2023-08-20T02:07:16;20.30;99.90
9598;DHT22;4837;50.890;4.724;2023-08-20T02:09:42;20.30;99.90
9598;DHT22;4837;50.890;4.724;2023-08-20T02:12:08;20.30;99.90
9598;DHT22;4837;50.890;4.724;2023-08-20T02:14:34;20.30;99.90
9598;DHT22;4837;50.890;4.724;2023-08-20T02:17:03;20.40;99.90
9598;DHT22;4837;50.890;4.724;2023-08-20T02:19:29;20.40;99.90
9598;DHT22;4837;50.890;4.724;2023-08-20T02:21:55;20.30;99.90
9598;DHT22;4837;50.890;4.724;2023-08-20T02:24:21;20.30;99.90
9598;DHT22;4837;50.890;4.724;2023-08-20T02:26:47;20.30;99.90
9598;DHT22;4837;50.890;4.724;2023-08-20T02:29:12;20.40;99.90
9598;DHT22;4837;50.890;4.724;2023-08-20T02:31:39;20.30;99.90
9598;DHT22;4837;50.890;4.724;2023-08-20T02:34:05;20.30;99.90
9598;DHT22;4837;50.890;4.724;2023-08-20T02:36:31;20.30;99.90
9598;DHT22;4837;50.890;4.724;2023-08-20T02:38:57;20.30;99.90
9598;DHT22;4837;50.890;4.724;2023-08-20T02:41:23;20.30;99.90
9598;DHT22;4837;50.890;4.724;2023-08-20T02:43:49;20.30;99.90
9598;DHT22;4837;50.890;4.724;2023-08-20T02:46:14;20.10;99.90
9598;DHT22;4837;50.890;4.724;2023-08-20T02:48:40;20.10;99.90
9598;DHT22;4837;50.890;4.724;2023-08-20T02:51:06;20.00;99.90
9598;DHT22;4837;50.890;4.724;2023-08-20T02:53:32;19.90;99.90
9598;DHT22;4837;50.890;4.724;2023-08-20T02:55:58;19.80;99.90
9598;DHT22;4837;50.890;4.724;2023-08-20T02:58:24;19.60;99.90
9598;DHT22;4837;50.890;4.724;2023-08-20T03:00:50;19.60;99.90
9598;DHT22;4837;50.890;4.724;2023-08-20T03:03:15;19.40;99.90
9598;DHT22;4837;50.890;4.724;2023-08-20T03:05:42;19.40;99.90
9598;DHT22;4837;50.890;4.724;2023-08-20T03:08:08;19.40;99.90
9598;DHT22;4837;50.890;4.724;2023-08-20T03:10:34;19.40;99.90
9598;DHT22;4837;50.890;4.724;2023-08-20T03:13:00;19.30;99.90
9598;DHT22;4837;50.890;4.724;2023-08-20T03:15:27;19.40;99.90
9598;DHT22;4837;50.890;4.724;2023-08-20T03:17:53;19.40;99.90
9598;DHT22;4837;50.890;4.724;2023-08-20T03:20:19;19.40;99.90
9598;DHT22;4837;50.890;4.724;2023-08-20T03:22:44;19.30;99.90
9598;DHT22;4837;50.890;4.724;2023-08-20T03:25:10;19.30;99.90
9598;DHT22;4837;50.890;4.724;2023-08-20T03:27:36;19.20;99.90
9598;DHT22;4837;50.890;4.724;2023-08-20T03:30:03;19.10;99.90
9598;DHT22;4837;50.890;4.724;2023-08-20T03:32:30;19.10;99.90
9598;DHT22;4837;50.890;4.724;2023-08-20T03:34:56;19.10;99.90
9598;DHT22;4837;50.890;4.724;2023-08-20T03:37:22;18.90;99.90
9598;DHT22;4837;50.890;4.724;2023-08-20T03:39:48;18.80;99.90
9598;DHT22;4837;50.890;4.724;2023-08-20T03:42:14;18.80;99.90
9598;DHT22;4837;50.890;4.724;2023-08-20T03:49:32;18.80;99.90
9598;DHT22;4837;50.890;4.724;2023-08-20T04:43:24;17.70;99.90
9598;DHT22;4837;50.890;4.724;2023-08-20T04:45:49;17.80;99.90
9598;DHT22;4837;50.890;4.724;2023-08-20T04:48:15;17.80;99.90
9598;DHT22;4837;50.890;4.724;2023-08-20T04:50:41;17.80;99.90
9598;DHT22;4837;50.890;4.724;2023-08-20T04:53:07;17.90;99.90
9598;DHT22;4837;50.890;4.724;2023-08-20T04:55:32;17.90;99.90
9598;DHT22;4837;50.890;4.724;2023-08-20T04:57:58;17.90;99.90
9598;DHT22;4837;50.890;4.724;2023-08-20T05:00:24;17.90;99.90
9598;DHT22;4837;50.890;4.724;2023-08-20T05:02:50;17.90;99.90
9598;DHT22;4837;50.890;4.724;2023-08-20T05:05:16;17.80;99.90
9598;DHT22;4837;50.890;4.724;2023-08-20T05:07:43;17.80;99.90
9598;DHT22;4837;50.890;4.724;2023-08-20T05:10:09;17.80;99.90
9598;DHT22;4837;50.890;4.724;2023-08-20T05:12:36;17.80;99.90
9598;DHT22;4837;50.890;4.724;2023-08-20T05:15:01;17.90;99.90
9598;DHT22;4837;50.890;4.724;2023-08-20T05:17:27;17.90;99.90
9598;DHT22;4837;50.890;4.724;2023-08-20T05:19:53;17.90;99.90
9598;DHT22;4837;50.890;4.724;2023-08-20T05:22:20;18.00;99.90
9598;DHT22;4837;50.890;4.724;2023-08-20T05:24:45;18.00;99.90
9598;DHT22;4837;50.890;4.724;2023-08-20T05:27:15;17.90;99.90
9598;DHT22;4837;50.890;4.724;2023-08-20T05:29:43;18.00;99.90
9598;DHT22;4837;50.890;4.724;2023-08-20T05:32:09;18.00;99.90
9598;DHT22;4837;50.890;4.724;2023-08-20T05:34:35;18.00;99.90
9598;DHT22;4837;50.890;4.724;2023-08-20T05:37:01;18.10;99.90
9598;DHT22;4837;50.890;4.724;2023-08-20T05:39:27;18.10;99.90
9598;DHT22;4837;50.890;4.724;2023-08-20T05:41:54;18.20;99.90
9598;DHT22;4837;50.890;4.724;2023-08-20T05:44:20;18.20;99.90
9598;DHT22;4837;50.890;4.724;2023-08-20T05:46:46;18.30;99.90
9598;DHT22;4837;50.890;4.724;2023-08-20T05:49:13;18.40;99.90
9598;DHT22;4837;50.890;4.724;2023-08-20T05:51:44;18.50;99.90
9598;DHT22;4837;50.890;4.724;2023-08-20T05:54:10;18.50;99.90
9598;DHT22;4837;50.890;4.724;2023-08-20T05:56:36;18.60;99.90
9598;DHT22;4837;50.890;4.724;2023-08-20T05:59:02;18.70;99.90
9598;DHT22;4837;50.890;4.724;2023-08-20T06:01:28;18.80;99.90
9598;DHT22;4837;50.890;4.724;2023-08-20T06:03:54;18.80;99.90
9598;DHT22;4837;50.890;4.724;2023-08-20T06:06:21;19.00;99.90
9598;DHT22;4837;50.890;4.724;2023-08-20T06:08:47;19.10;99.90
9598;DHT22;4837;50.890;4.724;2023-08-20T06:11:12;19.10;99.90
9598;DHT22;4837;50.890;4.724;2023-08-20T06:13:38;19.10;99.90
9598;DHT22;4837;50.890;4.724;2023-08-20T06:18:32;19.10;99.90
9598;DHT22;4837;50.890;4.724;2023-08-20T06:20:57;20.40;99.90
9598;DHT22;4837;50.890;4.724;2023-08-20T06:23:23;21.80;99.90
9598;DHT22;4837;50.890;4.724;2023-08-20T06:25:50;22.80;99.90
9598;DHT22;4837;50.890;4.724;2023-08-20T06:28:17;23.80;99.90
9598;DHT22;4837;50.890;4.724;2023-08-20T06:30:44;24.60;9.60
9598;DHT22;4837;50.890;4.724;2023-08-20T06:33:10;24.60;1.00
9598;DHT22;4837;50.890;4.724;2023-08-20T06:35:36;24.60;1.00
9598;DHT22;4837;50.890;4.724;2023-08-20T06:38:02;25.30;1.00
9598;DHT22;4837;50.890;4.724;2023-08-20T06:40:28;26.10;1.00
9598;DHT22;4837;50.890;4.724;2023-08-20T06:42:54;26.40;1.00
9598;DHT22;4837;50.890;4.724;2023-08-20T06:45:19;27.00;99.90
9598;DHT22;4837;50.890;4.724;2023-08-20T06:47:45;26.60;99.90
9598;DHT22;4837;50.890;4.724;2023-08-20T06:50:11;26.70;1.00
9598;DHT22;4837;50.890;4.724;2023-08-20T06:52:37;27.10;96.70
9598;DHT22;4837;50.890;4.724;2023-08-20T06:55:03;27.50;99.90
9598;DHT22;4837;50.890;4.724;2023-08-20T06:57:29;27.70;1.00
9598;DHT22;4837;50.890;4.724;2023-08-20T06:59:55;28.00;1.00
9598;DHT22;4837;50.890;4.724;2023-08-20T07:02:21;28.60;1.00
9598;DHT22;4837;50.890;4.724;2023-08-20T07:04:46;29.10;1.00
9598;DHT22;4837;50.890;4.724;2023-08-20T07:07:12;29.50;99.90
9598;DHT22;4837;50.890;4.724;2023-08-20T07:09:40;29.70;76.10
9598;DHT22;4837;50.890;4.724;2023-08-20T07:12:06;29.70;99.90
9598;DHT22;4837;50.890;4.724;2023-08-20T07:14:32;29.50;99.90
9598;DHT22;4837;50.890;4.724;2023-08-20T07:16:59;29.30;99.90
9598;DHT22;4837;50.890;4.724;2023-08-20T07:19:26;29.50;1.00
9598;DHT22;4837;50.890;4.724;2023-08-20T07:21:51;29.90;1.00
9598;DHT22;4837;50.890;4.724;2023-08-20T07:24:17;30.10;99.90
9598;DHT22;4837;50.890;4.724;2023-08-20T07:26:43;30.40;99.90
9598;DHT22;4837;50.890;4.724;2023-08-20T07:29:09;30.80;22.40
9598;DHT22;4837;50.890;4.724;2023-08-20T07:31:35;30.60;98.10
9598;DHT22;4837;50.890;4.724;2023-08-20T07:34:06;30.30;99.90
9598;DHT22;4837;50.890;4.724;2023-08-20T07:36:38;30.40;99.90
9598;DHT22;4837;50.890;4.724;2023-08-20T07:43:56;31.00;1.00
9598;DHT22;4837;50.890;4.724;2023-08-20T07:46:22;30.80;1.00
9598;DHT22;4837;50.890;4.724;2023-08-20T07:48:47;31.10;1.00
9598;DHT22;4837;50.890;4.724;2023-08-20T07:51:13;31.00;1.00
9598;DHT22;4837;50.890;4.724;2023-08-20T07:53:39;30.70;1.00
9598;DHT22;4837;50.890;4.724;2023-08-20T07:56:05;30.70;1.00
9598;DHT22;4837;50.890;4.724;2023-08-20T07:58:30;30.60;1.00
9598;DHT22;4837;50.890;4.724;2023-08-20T08:00:56;30.80;1.00
9598;DHT22;4837;50.890;4.724;2023-08-20T08:03:22;31.30;1.00
9598;DHT22;4837;50.890;4.724;2023-08-20T08:05:49;31.50;1.00
9598;DHT22;4837;50.890;4.724;2023-08-20T08:10:47;31.90;1.00
9598;DHT22;4837;50.890;4.724;2023-08-20T08:13:14;31.80;1.00
9598;DHT22;4837;50.890;4.724;2023-08-20T08:15:40;32.40;1.00
9598;DHT22;4837;50.890;4.724;2023-08-20T08:18:07;32.20;1.00
9598;DHT22;4837;50.890;4.724;2023-08-20T08:20:34;32.30;1.00
9598;DHT22;4837;50.890;4.724;2023-08-20T08:23:00;32.40;1.00
9598;DHT22;4837;50.890;4.724;2023-08-20T08:25:26;32.50;1.00
9598;DHT22;4837;50.890;4.724;2023-08-20T08:47:34;33.20;1.00
9598;DHT22;4837;50.890;4.724;2023-08-20T08:50:01;33.60;99.90
9598;DHT22;4837;50.890;4.724;2023-08-20T08:52:28;33.50;99.90
9598;DHT22;4837;50.890;4.724;2023-08-20T08:54:53;32.80;1.00
9598;DHT22;4837;50.890;4.724;2023-08-20T08:57:19;33.00;1.00
9598;DHT22;4837;50.890;4.724;2023-08-20T08:59:45;33.40;1.00
9598;DHT22;4837;50.890;4.724;2023-08-20T09:02:12;33.50;1.00
9598;DHT22;4837;50.890;4.724;2023-08-20T09:04:42;33.70;1.00
9598;DHT22;4837;50.890;4.724;2023-08-20T09:07:12;34.20;99.90
9598;DHT22;4837;50.890;4.724;2023-08-20T09:09:42;34.30;1.00
9598;DHT22;4837;50.890;4.724;2023-08-20T09:12:19;34.40;1.00
9598;DHT22;4837;50.890;4.724;2023-08-20T09:14:50;34.10;1.00
9598;DHT22;4837;50.890;4.724;2023-08-20T09:17:16;34.40;1.00
9598;DHT22;4837;50.890;4.724;2023-08-20T09:19:44;34.40;1.00
9598;DHT22;4837;50.890;4.724;2023-08-20T09:22:12;34.80;1.00
9598;DHT22;4837;50.890;4.724;2023-08-20T09:24:45;35.10;99.90
9598;DHT22;4837;50.890;4.724;2023-08-20T09:27:14;35.30;99.90
9598;DHT22;4837;50.890;4.724;2023-08-20T09:29:45;35.60;99.90
9598;DHT22;4837;50.890;4.724;2023-08-20T09:34:44;35.40;99.90
9598;DHT22;4837;50.890;4.724;2023-08-20T09:37:12;34.90;99.90
9598;DHT22;4837;50.890;4.724;2023-08-20T09:39:38;35.00;99.90
9598;DHT22;4837;50.890;4.724;2023-08-20T09:42:05;34.90;99.90
9598;DHT22;4837;50.890;4.724;2023-08-20T09:44:36;34.80;99.90
9598;DHT22;4837;50.890;4.724;2023-08-20T09:47:06;34.80;99.90
9598;DHT22;4837;50.890;4.724;2023-08-20T09:57:01;34.80;1.00
9598;DHT22;4837;50.890;4.724;2023-08-20T09:59:31;34.90;1.00
9598;DHT22;4837;50.890;4.724;2023-08-20T18:27:39;26.50;99.90
9598;DHT22;4837;50.890;4.724;2023-08-20T18:35:04;26.40;1.00
9598;DHT22;4837;50.890;4.724;2023-08-20T18:37:30;26.10;1.00
9598;DHT22;4837;50.890;4.724;2023-08-20T18:39:55;26.10;38.10
9598;DHT22;4837;50.890;4.724;2023-08-20T18:54:34;25.60;99.90
9598;DHT22;4837;50.890;4.724;2023-08-20T18:57:02;25.60;99.90
9598;DHT22;4837;50.890;4.724;2023-08-20T18:59:29;25.70;99.90
9598;DHT22;4837;50.890;4.724;2023-08-20T19:01:55;25.60;99.90
9598;DHT22;4837;50.890;4.724;2023-08-20T19:04:21;25.50;99.90
9598;DHT22;4837;50.890;4.724;2023-08-20T19:09:19;25.10;99.90
9598;DHT22;4837;50.890;4.724;2023-08-20T19:24:03;24.80;1.00
9598;DHT22;4837;50.890;4.724;2023-08-20T19:55:55;24.10;1.00
9598;DHT22;4837;50.890;4.724;2023-08-20T19:58:22;24.20;1.00
9598;DHT22;4837;50.890;4.724;2023-08-20T20:00:49;24.30;1.00
9598;DHT22;4837;50.890;4.724;2023-08-20T20:03:14;24.20;1.00
9598;DHT22;4837;50.890;4.724;2023-08-20T20:05:40;24.20;1.00
9598;DHT22;4837;50.890;4.724;2023-08-20T20:08:06;24.10;1.00
9598;DHT22;4837;50.890;4.724;2023-08-20T20:10:33;24.00;1.00
9598;DHT22;4837;50.890;4.724;2023-08-20T20:12:59;24.00;1.00
9598;DHT22;4837;50.890;4.724;2023-08-20T20:15:24;24.00;3.30
9598;DHT22;4837;50.890;4.724;2023-08-20T20:17:50;23.90;8.60
9598;DHT22;4837;50.890;4.724;2023-08-20T20:32:40;23.60;40.20
9598;DHT22;4837;50.890;4.724;2023-08-20T21:19:23;23.40;69.50
9598;DHT22;4837;50.890;4.724;2023-08-20T21:24:14;23.10;94.00
9598;DHT22;4837;50.890;4.724;2023-08-20T21:26:40;23.20;94.20
9598;DHT22;4837;50.890;4.724;2023-08-20T22:20:25;22.80;78.70
9598;DHT22;4837;50.890;4.724;2023-08-20T22:25:21;22.40;99.90
9598;DHT22;4837;50.890;4.724;2023-08-20T22:27:49;22.20;99.90
9598;DHT22;4837;50.890;4.724;2023-08-20T22:30:22;22.20;99.90
9598;DHT22;4837;50.890;4.724;2023-08-20T22:32:50;22.10;99.90
9598;DHT22;4837;50.890;4.724;2023-08-20T22:45:31;22.20;99.90
9598;DHT22;4837;50.890;4.724;2023-08-20T22:47:59;21.80;99.90
9598;DHT22;4837;50.890;4.724;2023-08-20T22:50:27;21.90;99.90
9598;DHT22;4837;50.890;4.724;2023-08-20T22:52:55;21.90;99.90
9598;DHT22;4837;50.890;4.724;2023-08-20T22:55:23;22.10;99.90
9598;DHT22;4837;50.890;4.724;2023-08-20T22:57:51;22.20;99.90
9598;DHT22;4837;50.890;4.724;2023-08-20T23:00:20;22.30;99.90
